createdAt,value
2022-10-10T00:01:22.220Z,6.97
2022-10-10T00:03:49.800Z,8.47
2022-10-10T00:06:17.874Z,10.57
2022-10-10T00:08:45.882Z,6.63
2022-10-10T00:11:14.761Z,7.13
2022-10-10T00:13:42.389Z,6.90
2022-10-10T00:16:10.195Z,8.40
2022-10-10T00:18:37.807Z,8.57
2022-10-10T00:21:05.368Z,7.07
2022-10-10T00:23:32.770Z,7.27
2022-10-10T00:26:01.929Z,7.57
2022-10-10T00:28:31.058Z,6.43
2022-10-10T00:30:58.586Z,8.70
2022-10-10T00:33:25.951Z,7.90
2022-10-10T00:35:53.420Z,7.03
2022-10-10T00:38:20.859Z,7.27
2022-10-10T00:40:54.386Z,7.67
2022-10-10T00:43:22.763Z,7.77
2022-10-10T00:45:50.841Z,6.57
2022-10-10T00:48:26.882Z,8.40
2022-10-10T00:50:54.290Z,9.43
2022-10-10T00:53:23.792Z,7.03
2022-10-10T00:55:52.258Z,7.03
2022-10-10T00:58:19.953Z,6.90
2022-10-10T01:01:12.813Z,9.23
2022-10-10T01:03:40.700Z,8.37
2022-10-10T01:06:08.711Z,7.80
2022-10-10T01:08:36.769Z,7.03
2022-10-10T01:11:23.074Z,8.80
2022-10-10T01:14:04.694Z,7.63
2022-10-10T01:16:55.050Z,7.63
2022-10-10T01:19:25.144Z,9.50
2022-10-10T01:22:01.399Z,9.27
2022-10-10T01:24:34.577Z,8.20
2022-10-10T01:27:05.012Z,7.83
2022-10-10T01:29:35.355Z,10.17
2022-10-10T01:32:09.140Z,7.47
2022-10-10T01:34:36.477Z,8.53
2022-10-10T01:37:13.653Z,6.20
2022-10-10T01:39:43.807Z,6.73
2022-10-10T01:42:15.232Z,9.67
2022-10-10T01:44:46.683Z,10.83
2022-10-10T01:47:14.283Z,7.17
2022-10-10T01:49:42.763Z,6.60
2022-10-10T01:52:15.978Z,7.57
2022-10-10T01:54:51.658Z,7.33
2022-10-10T01:57:22.617Z,7.53
2022-10-10T01:59:59.091Z,6.67
2022-10-10T02:02:38.747Z,9.10
2022-10-10T02:05:15.138Z,11.10
2022-10-10T02:07:52.643Z,7.70
2022-10-10T02:10:22.773Z,8.23
2022-10-10T02:12:51.089Z,7.37
2022-10-10T02:15:21.365Z,6.60
2022-10-10T02:17:49.709Z,9.70
2022-10-10T02:20:18.603Z,7.97
2022-10-10T02:22:46.332Z,9.00
2022-10-10T02:25:14.123Z,6.87
2022-10-10T02:27:50.467Z,6.40
2022-10-10T02:30:18.333Z,8.37
2022-10-10T02:32:48.444Z,7.57
2022-10-10T02:35:18.458Z,9.07
2022-10-10T02:37:46.306Z,8.30
2022-10-10T02:40:16.273Z,7.00
2022-10-10T02:42:44.652Z,7.53
2022-10-10T02:45:12.060Z,7.20
2022-10-10T02:47:39.433Z,7.20
2022-10-10T02:50:08.306Z,6.63
2022-10-10T02:52:35.666Z,8.53
2022-10-10T02:55:03.021Z,8.33
2022-10-10T02:57:30.395Z,6.00
2022-10-10T02:59:57.768Z,7.03
2022-10-10T03:02:25.151Z,6.93
2022-10-10T03:04:52.479Z,6.80
2022-10-10T03:07:19.848Z,8.60
2022-10-10T03:09:47.241Z,7.53
2022-10-10T03:12:14.609Z,10.13
2022-10-10T03:14:41.972Z,8.57
2022-10-10T03:17:09.436Z,7.27
2022-10-10T03:19:36.745Z,7.63
2022-10-10T03:22:04.215Z,6.93
2022-10-10T03:24:31.572Z,8.07
2022-10-10T03:26:58.904Z,6.93
2022-10-10T03:29:26.256Z,7.77
2022-10-10T03:31:53.581Z,8.13
2022-10-10T03:34:21.013Z,8.60
2022-10-10T03:36:48.488Z,8.43
2022-10-10T03:39:15.884Z,7.87
2022-10-10T03:41:43.271Z,7.27
2022-10-10T03:44:10.666Z,8.67
2022-10-10T03:46:38.082Z,8.47
2022-10-10T03:49:05.463Z,8.20
2022-10-10T03:51:32.822Z,6.50
2022-10-10T03:54:00.154Z,10.30
2022-10-10T03:56:27.752Z,6.40
2022-10-10T03:58:55.109Z,9.50
2022-10-10T04:01:22.547Z,8.63
2022-10-10T04:03:52.114Z,7.07
2022-10-10T04:06:20.153Z,7.10
2022-10-10T04:08:47.523Z,7.40
2022-10-10T04:11:15.014Z,8.13
2022-10-10T04:13:42.377Z,8.73
2022-10-10T04:16:09.710Z,7.47
2022-10-10T04:18:37.068Z,7.47
2022-10-10T04:21:07.270Z,8.37
2022-10-10T04:23:34.948Z,9.37
2022-10-10T04:26:02.320Z,6.80
2022-10-10T04:28:29.828Z,6.47
2022-10-10T04:30:57.291Z,7.20
2022-10-10T04:33:24.743Z,9.70
2022-10-10T04:35:52.079Z,8.23
2022-10-10T04:38:21.359Z,7.57
2022-10-10T04:40:50.094Z,6.83
2022-10-10T04:43:18.139Z,6.07
2022-10-10T04:45:45.763Z,7.43
2022-10-10T04:48:13.234Z,8.17
2022-10-10T04:50:40.897Z,6.90
2022-10-10T04:53:08.273Z,7.60
2022-10-10T04:55:35.733Z,7.33
2022-10-10T04:58:03.092Z,8.37
2022-10-10T05:00:30.539Z,6.13
2022-10-10T05:02:58.016Z,7.67
2022-10-10T05:05:25.396Z,6.60
2022-10-10T05:07:55.468Z,8.77
2022-10-10T05:10:23.640Z,7.13
2022-10-10T05:12:51.965Z,8.03
2022-10-10T05:15:21.475Z,7.70
2022-10-10T05:17:48.874Z,6.93
2022-10-10T05:20:16.203Z,6.30
2022-10-10T05:22:43.680Z,7.53
2022-10-10T05:25:11.192Z,5.63
2022-10-10T05:27:38.652Z,5.57
2022-10-10T05:30:06.380Z,9.47
2022-10-10T05:32:33.732Z,7.07
2022-10-10T05:35:01.174Z,7.00
2022-10-10T05:37:28.509Z,6.80
2022-10-10T05:39:55.901Z,7.03
2022-10-10T05:42:23.367Z,8.90
2022-10-10T05:44:50.756Z,8.87
2022-10-10T05:47:18.322Z,7.20
2022-10-10T05:49:45.729Z,6.20
2022-10-10T05:52:13.165Z,6.10
2022-10-10T05:54:40.669Z,10.53
2022-10-10T05:57:09.152Z,8.47
2022-10-10T05:59:38.986Z,8.50
2022-10-10T06:02:06.379Z,8.20
2022-10-10T06:04:33.821Z,7.60
2022-10-10T06:07:01.306Z,6.80
2022-10-10T06:09:28.702Z,7.47
2022-10-10T06:11:56.098Z,10.60
2022-10-10T06:14:23.614Z,8.63
2022-10-10T06:16:51.031Z,8.27
2022-10-10T06:19:18.489Z,11.33
2022-10-10T06:21:45.827Z,8.43
2022-10-10T06:24:13.156Z,9.67
2022-10-10T06:26:40.550Z,8.03
2022-10-10T06:29:08.009Z,6.57
2022-10-10T06:31:39.597Z,10.27
2022-10-10T06:34:07.162Z,7.97
2022-10-10T06:36:34.691Z,8.93
2022-10-10T06:39:02.173Z,10.30
2022-10-10T06:41:29.529Z,9.87
2022-10-10T06:43:57.016Z,7.60
2022-10-10T06:46:24.366Z,7.87
2022-10-10T06:48:51.715Z,8.53
2022-10-10T06:51:19.543Z,8.47
2022-10-10T06:53:47.113Z,7.40
2022-10-10T06:56:24.956Z,9.30
2022-10-10T06:58:54.635Z,8.73
2022-10-10T07:01:23.101Z,11.00
2022-10-10T07:03:50.707Z,9.80
2022-10-10T07:06:18.409Z,9.53
2022-10-10T07:08:45.855Z,10.03
2022-10-10T07:11:13.207Z,9.90
2022-10-10T07:13:40.764Z,9.27
2022-10-10T07:16:08.382Z,8.30
2022-10-10T07:18:36.948Z,9.60
2022-10-10T07:21:05.076Z,11.17
2022-10-10T07:23:33.042Z,11.57
2022-10-10T07:26:01.966Z,12.07
2022-10-10T07:28:29.794Z,11.30
2022-10-10T07:31:01.615Z,9.70
2022-10-10T07:33:33.165Z,8.97
2022-10-10T07:36:00.551Z,12.03
2022-10-10T07:38:28.148Z,9.07
2022-10-10T07:40:55.546Z,9.27
2022-10-10T07:43:22.993Z,8.77
2022-10-10T07:45:50.601Z,10.87
2022-10-10T07:48:18.306Z,9.40
2022-10-10T07:50:46.007Z,9.23
2022-10-10T07:53:13.560Z,8.23
2022-10-10T07:55:41.397Z,10.13
2022-10-10T07:58:10.145Z,8.53
2022-10-10T08:00:38.656Z,9.07
2022-10-10T08:03:11.037Z,8.10
2022-10-10T08:05:43.131Z,10.50
2022-10-10T08:08:11.396Z,7.80
2022-10-10T08:10:38.864Z,12.47
2022-10-10T08:13:06.183Z,8.70
2022-10-10T08:15:34.138Z,8.33
2022-10-10T08:18:01.722Z,10.43
2022-10-10T08:20:29.076Z,9.67
2022-10-10T08:22:56.555Z,9.30
2022-10-10T08:25:23.870Z,9.07
2022-10-10T08:27:51.257Z,7.73
2022-10-10T08:30:18.642Z,9.60
2022-10-10T08:32:46.045Z,10.77
2022-10-10T08:35:13.419Z,7.83
2022-10-10T08:37:41.074Z,8.03
2022-10-10T08:40:09.218Z,8.00
2022-10-10T08:42:47.888Z,8.33
2022-10-10T08:45:20.579Z,8.67
2022-10-10T08:47:54.727Z,11.13
2022-10-10T08:50:31.304Z,10.23
2022-10-10T08:53:04.269Z,9.47
2022-10-10T08:55:35.790Z,7.70
2022-10-10T08:58:20.265Z,9.13
2022-10-10T09:00:49.257Z,10.57
2022-10-10T09:03:36.874Z,8.10
2022-10-10T09:06:19.352Z,10.43
2022-10-10T09:09:02.162Z,11.20
2022-10-10T09:11:49.862Z,8.93
2022-10-10T09:14:27.417Z,11.27
2022-10-10T09:17:07.443Z,8.43
2022-10-10T09:19:42.204Z,8.93
2022-10-10T09:22:14.043Z,8.37
2022-10-10T09:24:44.608Z,8.70
2022-10-10T09:27:15.185Z,9.43
2022-10-10T09:29:42.588Z,11.20
2022-10-10T09:32:10.203Z,9.53
2022-10-10T09:34:37.706Z,8.50
2022-10-10T09:37:06.463Z,10.47
2022-10-10T09:39:40.087Z,7.73
2022-10-10T09:42:12.159Z,10.07
2022-10-10T09:44:40.297Z,9.27
2022-10-10T09:47:08.247Z,8.57
2022-10-10T09:49:36.007Z,11.60
2022-10-10T09:52:12.015Z,8.67
2022-10-10T09:54:39.583Z,8.60
2022-10-10T09:57:06.949Z,8.97
2022-10-10T09:59:39.117Z,9.13
2022-10-10T10:02:20.179Z,9.83
2022-10-10T10:04:48.771Z,12.17
2022-10-10T10:07:21.665Z,8.53
2022-10-10T10:09:57.046Z,8.90
2022-10-10T10:12:25.836Z,8.77
2022-10-10T10:14:54.026Z,9.47
2022-10-10T10:17:23.484Z,8.37
2022-10-10T10:19:51.033Z,9.30
2022-10-10T10:22:35.569Z,8.33
2022-10-10T10:25:25.441Z,8.90
2022-10-10T10:27:54.239Z,11.10
2022-10-10T10:30:26.059Z,9.10
2022-10-10T10:32:53.394Z,10.40
2022-10-10T10:35:34.988Z,9.77
2022-10-10T10:38:21.029Z,9.03
2022-10-10T10:40:55.100Z,7.20
2022-10-10T10:43:22.419Z,9.33
2022-10-10T10:45:58.227Z,10.40
2022-10-10T10:48:25.782Z,9.07
2022-10-10T10:50:55.047Z,9.27
2022-10-10T10:53:40.912Z,9.70
2022-10-10T10:56:26.718Z,9.07
2022-10-10T11:01:55.840Z,10.40
2022-10-10T11:05:24.437Z,9.07
2022-10-10T11:07:36.553Z,9.13
2022-10-10T11:10:13.205Z,8.33
2022-10-10T11:12:59.331Z,7.17
2022-10-10T11:16:04.704Z,10.43
2022-10-10T11:18:35.811Z,8.70
2022-10-10T11:21:05.803Z,7.03
2022-10-10T11:23:40.879Z,9.57
2022-10-10T11:26:17.444Z,8.33
2022-10-10T11:28:51.560Z,11.40
2022-10-10T11:31:32.478Z,7.33
2022-10-10T11:34:22.856Z,7.47
2022-10-10T11:36:52.305Z,7.27
2022-10-10T11:39:22.664Z,8.07
2022-10-10T11:41:57.114Z,7.40
2022-10-10T11:44:30.638Z,7.72
2022-10-10T11:47:04.277Z,8.97
2022-10-10T11:49:48.185Z,6.80
2022-10-10T11:52:33.525Z,8.33
2022-10-10T11:55:10.030Z,9.50
2022-10-10T11:57:53.411Z,7.80
2022-10-10T12:00:20.937Z,8.38
2022-10-10T12:02:48.688Z,8.73
2022-10-10T12:05:22.249Z,7.38
2022-10-10T12:07:49.653Z,9.73
2022-10-10T12:10:24.491Z,7.78
2022-10-10T12:12:54.008Z,10.50
2022-10-10T12:15:26.716Z,8.25
2022-10-10T12:17:54.298Z,7.93
2022-10-10T12:20:21.831Z,9.00
2022-10-10T12:23:06.921Z,7.50
2022-10-10T12:25:42.542Z,10.65
2022-10-10T12:28:16.846Z,7.72
2022-10-10T12:30:57.734Z,7.57
2022-10-10T12:33:31.879Z,7.55
2022-10-10T12:36:18.447Z,9.90
2022-10-10T12:39:08.560Z,7.50
2022-10-10T12:41:55.962Z,9.25
2022-10-10T12:44:42.645Z,8.32
2022-10-10T12:47:13.188Z,10.07
2022-10-10T12:49:49.630Z,7.38
2022-10-10T12:52:27.380Z,9.30
2022-10-10T12:55:06.560Z,8.15
2022-10-10T12:57:37.920Z,7.78
2022-10-10T13:00:25.615Z,8.98
2022-10-10T13:02:57.865Z,10.52
2022-10-10T13:05:31.919Z,8.57
2022-10-10T13:08:01.405Z,8.43
2022-10-10T13:10:29.991Z,8.98
2022-10-10T13:13:01.655Z,10.00
2022-10-10T13:15:29.790Z,7.15
2022-10-10T13:17:57.184Z,7.55
2022-10-10T13:20:32.600Z,8.52
2022-10-10T13:23:03.356Z,6.97
2022-10-10T13:25:30.882Z,8.50
2022-10-10T13:27:58.341Z,8.75
2022-10-10T13:30:25.838Z,8.52
2022-10-10T13:32:54.424Z,9.57
2022-10-10T13:35:23.459Z,9.40
2022-10-10T13:37:53.494Z,8.77
2022-10-10T13:40:21.333Z,8.73
2022-10-10T13:42:49.030Z,7.20
2022-10-10T13:45:35.935Z,10.20
2022-10-10T13:48:03.335Z,8.88
2022-10-10T13:50:30.708Z,7.35
2022-10-10T13:53:16.569Z,9.80
2022-10-10T13:55:44.007Z,7.90
2022-10-10T13:58:11.442Z,9.65
2022-10-10T14:00:38.892Z,10.75
2022-10-10T14:03:17.125Z,10.13
2022-10-10T14:05:45.105Z,10.32
2022-10-10T14:08:20.579Z,10.45
2022-10-10T14:11:02.389Z,11.00
2022-10-10T14:13:30.827Z,9.45
2022-10-10T14:16:30.380Z,10.25
2022-10-10T14:18:57.751Z,9.80
2022-10-10T14:21:25.821Z,9.30
2022-10-10T14:23:53.262Z,11.00
2022-10-10T14:26:21.691Z,9.07
2022-10-10T14:28:49.594Z,8.70
2022-10-10T14:31:17.048Z,8.32
2022-10-10T14:33:44.510Z,9.48
2022-10-10T14:36:13.078Z,11.38
2022-10-10T14:38:40.627Z,8.93
2022-10-10T14:41:08.064Z,9.25
2022-10-10T14:43:35.462Z,11.23
2022-10-10T14:46:03.150Z,10.90
2022-10-10T14:48:30.686Z,8.23
2022-10-10T14:50:58.146Z,9.18
2022-10-10T14:53:25.550Z,8.95
2022-10-10T14:55:56.253Z,10.30
2022-10-10T14:58:24.003Z,8.63
2022-10-10T15:00:52.590Z,10.13
2022-10-10T15:03:20.202Z,9.88
2022-10-10T15:05:50.929Z,11.45
2022-10-10T15:08:19.696Z,11.55
2022-10-10T15:10:47.703Z,9.30
2022-10-10T15:13:15.714Z,10.38
2022-10-10T15:15:43.312Z,9.40
2022-10-10T15:18:32.024Z,9.45
2022-10-10T15:20:58.133Z,10.57
2022-10-10T15:23:27.031Z,15.00
2022-10-10T15:25:54.511Z,11.10
2022-10-10T15:28:21.904Z,10.95
2022-10-10T15:30:49.313Z,12.85
2022-10-10T15:33:16.658Z,10.25
2022-10-10T15:36:07.981Z,9.73
2022-10-10T15:38:33.601Z,9.52
2022-10-10T15:41:10.832Z,10.70
2022-10-10T15:43:47.042Z,10.45
2022-10-10T15:46:14.611Z,9.85
2022-10-10T15:48:42.073Z,9.63
2022-10-10T15:51:09.813Z,9.48
2022-10-10T15:53:37.349Z,10.20
2022-10-10T15:56:11.891Z,10.93
2022-10-10T15:58:39.743Z,9.55
2022-10-10T16:01:14.760Z,11.30
2022-10-10T16:03:42.652Z,9.68
2022-10-10T16:06:10.748Z,10.07
2022-10-10T16:08:38.899Z,8.80
2022-10-10T16:11:07.354Z,11.52
2022-10-10T16:13:36.137Z,10.15
2022-10-10T16:16:06.125Z,10.52
2022-10-10T16:18:39.344Z,9.05
2022-10-10T16:21:08.909Z,8.98
2022-10-10T16:23:36.661Z,10.90
2022-10-10T16:26:08.768Z,9.35
2022-10-10T16:28:36.228Z,8.65
2022-10-10T16:31:07.518Z,23.10
2022-10-10T16:33:38.893Z,32.80
2022-10-10T16:36:25.437Z,22.65
2022-10-10T16:38:54.841Z,26.23
2022-10-10T16:41:45.846Z,17.80
2022-10-10T16:44:09.618Z,14.45
2022-10-10T16:46:36.997Z,11.77
2022-10-10T16:49:04.720Z,12.45
2022-10-10T16:51:32.385Z,12.30
2022-10-10T16:54:01.727Z,12.48
2022-10-10T16:56:30.150Z,11.00
2022-10-10T16:58:59.382Z,13.02
2022-10-10T17:01:26.892Z,10.88
2022-10-10T17:03:54.381Z,11.00
2022-10-10T17:06:23.454Z,11.18
2022-10-10T17:08:52.190Z,10.55
2022-10-10T17:11:20.641Z,12.30
2022-10-10T17:13:48.525Z,9.98
2022-10-10T17:19:05.816Z,14.68
2022-10-10T17:21:33.301Z,10.50
2022-10-10T17:24:00.721Z,11.65
2022-10-10T17:26:28.223Z,9.82
2022-10-10T17:28:56.807Z,10.95
2022-10-10T17:31:24.966Z,11.00
2022-10-10T17:33:54.188Z,10.80
2022-10-10T17:36:26.317Z,10.67
2022-10-10T17:38:56.017Z,10.50
2022-10-10T17:41:24.011Z,11.60
2022-10-10T17:43:51.924Z,10.32
2022-10-10T17:46:36.991Z,11.80
2022-10-10T17:49:06.018Z,10.73
2022-10-10T17:51:33.787Z,9.60
2022-10-10T17:54:01.787Z,9.83
2022-10-10T17:56:29.278Z,9.77
2022-10-10T17:58:57.096Z,10.17
2022-10-10T18:01:24.657Z,9.10
2022-10-10T18:03:52.110Z,9.73
2022-10-10T18:06:21.317Z,11.90
2022-10-10T18:08:49.305Z,10.43
2022-10-10T18:11:17.691Z,11.93
2022-10-10T18:13:45.147Z,11.30
2022-10-10T18:16:15.431Z,10.57
2022-10-10T18:18:48.219Z,8.87
2022-10-10T18:21:18.076Z,10.20
2022-10-10T18:23:45.448Z,10.77
2022-10-10T18:26:15.329Z,12.10
2022-10-10T18:28:43.282Z,9.63
2022-10-10T18:31:13.759Z,11.00
2022-10-10T18:33:41.957Z,10.27
2022-10-10T18:36:10.373Z,10.70
2022-10-10T18:38:38.018Z,10.03
2022-10-10T18:41:05.777Z,12.17
2022-10-10T18:43:33.694Z,9.50
2022-10-10T18:46:01.968Z,12.07
2022-10-10T18:48:29.457Z,12.57
2022-10-10T18:51:07.147Z,12.00
2022-10-10T18:53:42.059Z,10.33
2022-10-10T18:56:10.167Z,10.90
2022-10-10T18:58:37.565Z,13.80
2022-10-10T19:01:07.504Z,11.93
2022-10-10T19:03:36.563Z,9.83
2022-10-10T19:06:05.064Z,11.10
2022-10-10T19:08:32.830Z,12.20
2022-10-10T19:11:00.560Z,12.70
2022-10-10T19:13:28.555Z,9.93
2022-10-10T19:15:56.046Z,11.50
2022-10-10T19:18:23.718Z,11.93
2022-10-10T19:20:51.100Z,11.33
2022-10-10T19:23:19.720Z,11.50
2022-10-10T19:25:47.039Z,11.53
2022-10-10T19:28:14.433Z,10.27
2022-10-10T19:30:42.896Z,12.77
2022-10-10T19:33:10.460Z,15.17
2022-10-10T19:35:52.067Z,13.37
2022-10-10T19:38:20.129Z,11.03
2022-10-10T19:40:47.960Z,12.00
2022-10-10T19:43:18.857Z,10.87
2022-10-10T19:45:47.215Z,11.43
2022-10-10T19:48:18.573Z,11.87
2022-10-10T19:50:46.382Z,13.40
2022-10-10T19:53:14.772Z,11.53
2022-10-10T19:55:42.310Z,11.13
2022-10-10T19:58:09.945Z,11.37
2022-10-10T20:00:37.972Z,11.17
2022-10-10T20:03:05.437Z,14.87
2022-10-10T20:05:32.916Z,11.63
2022-10-10T20:08:00.297Z,11.47
2022-10-10T20:10:27.708Z,11.97
2022-10-10T20:12:55.300Z,11.47
2022-10-10T20:15:22.746Z,11.20
2022-10-10T20:17:50.155Z,11.27
2022-10-10T20:20:17.545Z,13.03
2022-10-10T20:22:44.930Z,10.97
2022-10-10T20:25:12.404Z,11.87
2022-10-10T20:27:39.905Z,11.00
2022-10-10T20:30:07.588Z,13.80
2022-10-10T20:32:34.981Z,11.53
2022-10-10T20:35:02.878Z,11.80
2022-10-10T20:37:30.261Z,11.97
2022-10-10T20:39:57.626Z,11.80
2022-10-10T20:42:25.052Z,11.20
2022-10-10T20:44:52.365Z,11.57
2022-10-10T20:47:19.795Z,12.00
2022-10-10T20:49:47.169Z,11.60
2022-10-10T20:52:14.556Z,10.80
2022-10-10T20:54:42.038Z,12.27
2022-10-10T20:57:09.783Z,22.47
2022-10-10T20:59:37.118Z,15.53
2022-10-10T21:02:04.489Z,13.20
2022-10-10T21:04:31.949Z,13.40
2022-10-10T21:06:59.336Z,12.77
2022-10-10T21:09:26.843Z,11.63
2022-10-10T21:11:54.402Z,13.77
2022-10-10T21:14:21.816Z,15.30
2022-10-10T21:16:51.105Z,14.90
2022-10-10T21:19:18.723Z,13.47
2022-10-10T21:21:46.089Z,13.17
2022-10-10T21:24:13.556Z,12.60
2022-10-10T21:26:42.236Z,13.00
2022-10-10T21:29:10.078Z,12.50
2022-10-10T21:31:39.552Z,14.73
2022-10-10T21:34:07.922Z,15.60
2022-10-10T21:36:36.738Z,14.07
2022-10-10T21:39:06.668Z,12.40
2022-10-10T21:41:34.057Z,12.27
2022-10-10T21:44:01.483Z,12.80
2022-10-10T21:46:36.212Z,12.00
2022-10-10T21:49:05.857Z,13.13
2022-10-10T21:51:35.456Z,12.83
2022-10-10T21:54:02.856Z,12.10
2022-10-10T21:56:30.308Z,13.23
2022-10-10T21:59:01.258Z,13.63
2022-10-10T22:01:32.848Z,12.57
2022-10-10T22:04:00.941Z,13.47
2022-10-10T22:06:28.637Z,12.43
2022-10-10T22:08:57.356Z,11.77
2022-10-10T22:11:25.583Z,16.53
2022-10-10T22:13:53.054Z,15.10
2022-10-10T22:16:21.013Z,12.10
2022-10-10T22:18:48.620Z,12.60
2022-10-10T22:21:17.095Z,14.70
2022-10-10T22:23:45.322Z,13.50
2022-10-10T22:26:13.561Z,14.13
2022-10-10T22:28:41.050Z,12.23
2022-10-10T22:31:12.452Z,12.90
2022-10-10T22:33:39.846Z,14.03
2022-10-10T22:36:08.068Z,15.67
2022-10-10T22:38:45.651Z,14.70
2022-10-10T22:41:14.000Z,13.03
2022-10-10T22:43:41.486Z,15.90
2022-10-10T22:46:09.498Z,14.20
2022-10-10T22:48:37.149Z,13.40
2022-10-10T22:51:14.855Z,14.20
2022-10-10T22:53:42.837Z,15.10
2022-10-10T22:56:11.389Z,15.20
2022-10-10T22:58:38.786Z,14.17
2022-10-10T23:01:10.929Z,17.20
2022-10-10T23:03:38.364Z,14.70
2022-10-10T23:06:06.075Z,12.40
2022-10-10T23:08:34.051Z,14.33
2022-10-10T23:11:01.384Z,13.47
2022-10-10T23:13:29.077Z,12.33
2022-10-10T23:15:56.504Z,13.17
2022-10-10T23:18:23.857Z,13.03
2022-10-10T23:20:51.492Z,13.17
2022-10-10T23:23:19.230Z,12.60
2022-10-10T23:25:47.671Z,14.70
2022-10-10T23:28:15.867Z,12.67
2022-10-10T23:30:44.256Z,12.27
2022-10-10T23:33:12.021Z,13.37
2022-10-10T23:35:39.707Z,13.37
2022-10-10T23:38:07.089Z,12.33
2022-10-10T23:40:34.519Z,12.97
2022-10-10T23:43:02.054Z,10.70
2022-10-10T23:45:29.476Z,11.10
2022-10-10T23:47:56.893Z,12.93
2022-10-10T23:50:24.295Z,11.33
2022-10-10T23:52:51.658Z,12.20
2022-10-10T23:55:19.056Z,11.93
2022-10-10T23:57:46.412Z,11.87
